sensor_id;sensor_type;location;lat;lon;timestamp;P1;durP1;ratioP1;P2;durP2;ratioP2
10244;SDS011;5167;52.164;10.530;2024-03-06T00:01:29;17.60;;;10.33;;
10244;SDS011;5167;52.164;10.530;2024-03-06T00:03:55;22.47;;;11.00;;
10244;SDS011;5167;52.164;10.530;2024-03-06T00:06:20;22.70;;;10.70;;
10244;SDS011;5167;52.164;10.530;2024-03-06T00:08:45;19.73;;;10.60;;
10244;SDS011;5167;52.164;10.530;2024-03-06T00:11:11;23.20;;;10.33;;
10244;SDS011;5167;52.164;10.530;2024-03-06T00:13:36;19.80;;;10.87;;
10244;SDS011;5167;52.164;10.530;2024-03-06T00:16:02;18.33;;;10.13;;
10244;SDS011;5167;52.164;10.530;2024-03-06T00:18:27;18.13;;;12.00;;
10244;SDS011;5167;52.164;10.530;2024-03-06T00:20:53;26.80;;;12.03;;
10244;SDS011;5167;52.164;10.530;2024-03-06T00:23:18;21.00;;;11.53;;
10244;SDS011;5167;52.164;10.530;2024-03-06T00:25:44;17.93;;;11.03;;
10244;SDS011;5167;52.164;10.530;2024-03-06T00:28:10;25.83;;;11.63;;
10244;SDS011;5167;52.164;10.530;2024-03-06T00:30:35;15.97;;;10.10;;
10244;SDS011;5167;52.164;10.530;2024-03-06T00:33:01;18.23;;;10.30;;
10244;SDS011;5167;52.164;10.530;2024-03-06T00:35:26;20.47;;;10.83;;
10244;SDS011;5167;52.164;10.530;2024-03-06T00:37:53;22.13;;;10.17;;
10244;SDS011;5167;52.164;10.530;2024-03-06T00:40:19;18.00;;;10.63;;
10244;SDS011;5167;52.164;10.530;2024-03-06T00:42:44;17.27;;;10.73;;
10244;SDS011;5167;52.164;10.530;2024-03-06T00:45:10;24.77;;;10.87;;
10244;SDS011;5167;52.164;10.530;2024-03-06T00:47:36;20.27;;;9.93;;
10244;SDS011;5167;52.164;10.530;2024-03-06T00:50:02;19.10;;;10.60;;
10244;SDS011;5167;52.164;10.530;2024-03-06T00:52:28;19.10;;;10.57;;
10244;SDS011;5167;52.164;10.530;2024-03-06T00:54:53;25.20;;;11.87;;
10244;SDS011;5167;52.164;10.530;2024-03-06T00:57:19;19.60;;;10.93;;
10244;SDS011;5167;52.164;10.530;2024-03-06T00:59:44;19.90;;;10.97;;
10244;SDS011;5167;52.164;10.530;2024-03-06T01:02:10;24.40;;;10.60;;
10244;SDS011;5167;52.164;10.530;2024-03-06T01:04:35;22.27;;;12.43;;
10244;SDS011;5167;52.164;10.530;2024-03-06T01:07:01;20.13;;;11.10;;
10244;SDS011;5167;52.164;10.530;2024-03-06T01:09:26;19.67;;;10.87;;
10244;SDS011;5167;52.164;10.530;2024-03-06T01:11:52;26.03;;;11.47;;
10244;SDS011;5167;52.164;10.530;2024-03-06T01:14:17;24.40;;;11.77;;
10244;SDS011;5167;52.164;10.530;2024-03-06T01:16:43;20.57;;;11.53;;
10244;SDS011;5167;52.164;10.530;2024-03-06T01:19:08;18.03;;;10.37;;
10244;SDS011;5167;52.164;10.530;2024-03-06T01:21:34;22.30;;;11.23;;
10244;SDS011;5167;52.164;10.530;2024-03-06T01:23:59;20.83;;;11.40;;
10244;SDS011;5167;52.164;10.530;2024-03-06T01:26:25;14.73;;;9.67;;
10244;SDS011;5167;52.164;10.530;2024-03-06T01:28:51;21.43;;;11.23;;
10244;SDS011;5167;52.164;10.530;2024-03-06T01:31:17;23.40;;;11.30;;
10244;SDS011;5167;52.164;10.530;2024-03-06T01:33:42;18.67;;;10.63;;
10244;SDS011;5167;52.164;10.530;2024-03-06T01:36:08;16.87;;;10.17;;
10244;SDS011;5167;52.164;10.530;2024-03-06T01:38:33;20.67;;;10.43;;
10244;SDS011;5167;52.164;10.530;2024-03-06T01:40:59;17.20;;;10.10;;
10244;SDS011;5167;52.164;10.530;2024-03-06T01:43:25;20.60;;;10.50;;
10244;SDS011;5167;52.164;10.530;2024-03-06T01:45:51;17.83;;;10.10;;
10244;SDS011;5167;52.164;10.530;2024-03-06T01:48:20;23.03;;;10.77;;
10244;SDS011;5167;52.164;10.530;2024-03-06T01:50:51;18.70;;;10.77;;
10244;SDS011;5167;52.164;10.530;2024-03-06T01:53:20;16.77;;;10.13;;
10244;SDS011;5167;52.164;10.530;2024-03-06T01:55:46;18.93;;;10.50;;
10244;SDS011;5167;52.164;10.530;2024-03-06T01:58:13;19.83;;;10.90;;
10244;SDS011;5167;52.164;10.530;2024-03-06T02:00:39;19.17;;;10.83;;
10244;SDS011;5167;52.164;10.530;2024-03-06T02:03:05;19.23;;;11.30;;
10244;SDS011;5167;52.164;10.530;2024-03-06T02:05:31;20.27;;;11.37;;
10244;SDS011;5167;52.164;10.530;2024-03-06T02:07:57;19.17;;;10.30;;
10244;SDS011;5167;52.164;10.530;2024-03-06T02:10:24;20.63;;;11.27;;
10244;SDS011;5167;52.164;10.530;2024-03-06T02:12:51;23.87;;;10.70;;
10244;SDS011;5167;52.164;10.530;2024-03-06T02:15:18;19.17;;;10.73;;
10244;SDS011;5167;52.164;10.530;2024-03-06T02:17:43;19.30;;;10.37;;
10244;SDS011;5167;52.164;10.530;2024-03-06T02:20:10;19.53;;;10.70;;
10244;SDS011;5167;52.164;10.530;2024-03-06T02:22:38;19.97;;;11.07;;
10244;SDS011;5167;52.164;10.530;2024-03-06T02:25:04;18.07;;;10.37;;
10244;SDS011;5167;52.164;10.530;2024-03-06T02:27:31;19.70;;;10.47;;
10244;SDS011;5167;52.164;10.530;2024-03-06T02:29:57;18.73;;;11.37;;
10244;SDS011;5167;52.164;10.530;2024-03-06T02:32:23;17.87;;;9.83;;
10244;SDS011;5167;52.164;10.530;2024-03-06T02:34:49;20.10;;;11.10;;
10244;SDS011;5167;52.164;10.530;2024-03-06T02:37:15;18.67;;;11.43;;
10244;SDS011;5167;52.164;10.530;2024-03-06T02:39:41;18.70;;;11.87;;
10244;SDS011;5167;52.164;10.530;2024-03-06T02:42:06;18.50;;;11.90;;
10244;SDS011;5167;52.164;10.530;2024-03-06T02:44:32;19.23;;;10.60;;
10244;SDS011;5167;52.164;10.530;2024-03-06T02:46:58;19.93;;;10.67;;
10244;SDS011;5167;52.164;10.530;2024-03-06T02:49:24;22.43;;;11.10;;
10244;SDS011;5167;52.164;10.530;2024-03-06T02:51:49;24.53;;;10.83;;
10244;SDS011;5167;52.164;10.530;2024-03-06T02:54:16;19.43;;;11.17;;
10244;SDS011;5167;52.164;10.530;2024-03-06T02:56:41;22.63;;;11.27;;
10244;SDS011;5167;52.164;10.530;2024-03-06T02:59:07;21.00;;;10.73;;
10244;SDS011;5167;52.164;10.530;2024-03-06T03:01:33;18.93;;;10.83;;
10244;SDS011;5167;52.164;10.530;2024-03-06T03:03:59;21.47;;;11.83;;
10244;SDS011;5167;52.164;10.530;2024-03-06T03:06:24;19.37;;;10.47;;
10244;SDS011;5167;52.164;10.530;2024-03-06T03:08:50;19.03;;;10.80;;
10244;SDS011;5167;52.164;10.530;2024-03-06T03:11:15;21.93;;;11.67;;
10244;SDS011;5167;52.164;10.530;2024-03-06T03:13:41;19.37;;;11.07;;
10244;SDS011;5167;52.164;10.530;2024-03-06T03:16:07;26.00;;;12.00;;
10244;SDS011;5167;52.164;10.530;2024-03-06T03:18:40;21.50;;;10.77;;
10244;SDS011;5167;52.164;10.530;2024-03-06T03:21:08;21.87;;;12.20;;
10244;SDS011;5167;52.164;10.530;2024-03-06T03:23:35;22.10;;;11.80;;
10244;SDS011;5167;52.164;10.530;2024-03-06T03:26:01;18.53;;;10.20;;
10244;SDS011;5167;52.164;10.530;2024-03-06T03:28:28;20.40;;;10.53;;
10244;SDS011;5167;52.164;10.530;2024-03-06T03:30:54;17.23;;;10.97;;
10244;SDS011;5167;52.164;10.530;2024-03-06T03:33:21;20.73;;;11.03;;
10244;SDS011;5167;52.164;10.530;2024-03-06T03:35:47;17.97;;;10.27;;
10244;SDS011;5167;52.164;10.530;2024-03-06T03:38:13;22.00;;;11.50;;
10244;SDS011;5167;52.164;10.530;2024-03-06T03:40:38;20.07;;;10.63;;
10244;SDS011;5167;52.164;10.530;2024-03-06T03:43:04;21.03;;;10.57;;
10244;SDS011;5167;52.164;10.530;2024-03-06T03:45:31;18.43;;;9.90;;
10244;SDS011;5167;52.164;10.530;2024-03-06T03:48:04;21.87;;;10.37;;
10244;SDS011;5167;52.164;10.530;2024-03-06T03:50:30;19.73;;;10.90;;
10244;SDS011;5167;52.164;10.530;2024-03-06T03:52:57;21.60;;;10.97;;
10244;SDS011;5167;52.164;10.530;2024-03-06T03:55:23;18.43;;;9.90;;
10244;SDS011;5167;52.164;10.530;2024-03-06T03:57:49;19.60;;;10.93;;
10244;SDS011;5167;52.164;10.530;2024-03-06T04:00:15;22.03;;;10.50;;
10244;SDS011;5167;52.164;10.530;2024-03-06T04:02:41;19.07;;;10.77;;
10244;SDS011;5167;52.164;10.530;2024-03-06T04:05:07;19.63;;;10.40;;
10244;SDS011;5167;52.164;10.530;2024-03-06T04:07:34;19.97;;;10.80;;
10244;SDS011;5167;52.164;10.530;2024-03-06T04:10:00;18.77;;;10.63;;
10244;SDS011;5167;52.164;10.530;2024-03-06T04:12:26;18.93;;;10.57;;
10244;SDS011;5167;52.164;10.530;2024-03-06T04:14:51;23.17;;;11.00;;
10244;SDS011;5167;52.164;10.530;2024-03-06T04:17:17;20.20;;;11.37;;
10244;SDS011;5167;52.164;10.530;2024-03-06T04:19:42;18.67;;;10.73;;
10244;SDS011;5167;52.164;10.530;2024-03-06T04:22:08;22.63;;;11.40;;
10244;SDS011;5167;52.164;10.530;2024-03-06T04:24:33;20.73;;;11.43;;
10244;SDS011;5167;52.164;10.530;2024-03-06T04:26:59;22.27;;;12.00;;
10244;SDS011;5167;52.164;10.530;2024-03-06T04:29:24;22.90;;;11.30;;
10244;SDS011;5167;52.164;10.530;2024-03-06T04:31:50;18.07;;;10.90;;
10244;SDS011;5167;52.164;10.530;2024-03-06T04:34:15;19.13;;;11.30;;
10244;SDS011;5167;52.164;10.530;2024-03-06T04:36:41;22.20;;;11.47;;
10244;SDS011;5167;52.164;10.530;2024-03-06T04:39:06;21.63;;;10.97;;
10244;SDS011;5167;52.164;10.530;2024-03-06T04:41:32;21.67;;;12.53;;
10244;SDS011;5167;52.164;10.530;2024-03-06T04:43:58;24.07;;;12.30;;
10244;SDS011;5167;52.164;10.530;2024-03-06T04:46:25;17.33;;;10.73;;
10244;SDS011;5167;52.164;10.530;2024-03-06T04:48:51;21.57;;;12.40;;
10244;SDS011;5167;52.164;10.530;2024-03-06T04:51:17;19.53;;;11.07;;
10244;SDS011;5167;52.164;10.530;2024-03-06T04:53:44;25.67;;;11.57;;
10244;SDS011;5167;52.164;10.530;2024-03-06T04:56:10;23.73;;;12.17;;
10244;SDS011;5167;52.164;10.530;2024-03-06T04:58:35;18.00;;;11.00;;
10244;SDS011;5167;52.164;10.530;2024-03-06T05:01:01;20.50;;;11.13;;
10244;SDS011;5167;52.164;10.530;2024-03-06T05:03:28;20.23;;;11.87;;
10244;SDS011;5167;52.164;10.530;2024-03-06T05:05:54;21.63;;;11.47;;
10244;SDS011;5167;52.164;10.530;2024-03-06T05:08:19;26.57;;;12.33;;
10244;SDS011;5167;52.164;10.530;2024-03-06T05:10:45;24.67;;;12.33;;
10244;SDS011;5167;52.164;10.530;2024-03-06T05:13:11;24.13;;;12.20;;
10244;SDS011;5167;52.164;10.530;2024-03-06T05:15:36;23.73;;;12.47;;
10244;SDS011;5167;52.164;10.530;2024-03-06T05:18:04;26.07;;;12.57;;
10244;SDS011;5167;52.164;10.530;2024-03-06T05:20:30;21.57;;;11.57;;
10244;SDS011;5167;52.164;10.530;2024-03-06T05:22:56;23.17;;;12.10;;
10244;SDS011;5167;52.164;10.530;2024-03-06T05:25:21;25.40;;;11.97;;
10244;SDS011;5167;52.164;10.530;2024-03-06T05:27:47;25.20;;;11.57;;
10244;SDS011;5167;52.164;10.530;2024-03-06T05:30:12;26.43;;;11.80;;
10244;SDS011;5167;52.164;10.530;2024-03-06T05:32:39;24.80;;;12.20;;
10244;SDS011;5167;52.164;10.530;2024-03-06T05:35:06;20.87;;;11.73;;
10244;SDS011;5167;52.164;10.530;2024-03-06T05:37:34;26.83;;;13.17;;
10244;SDS011;5167;52.164;10.530;2024-03-06T05:40:00;24.03;;;12.67;;
10244;SDS011;5167;52.164;10.530;2024-03-06T05:42:25;25.43;;;12.33;;
10244;SDS011;5167;52.164;10.530;2024-03-06T05:44:51;24.37;;;12.03;;
10244;SDS011;5167;52.164;10.530;2024-03-06T05:47:19;19.93;;;12.13;;
10244;SDS011;5167;52.164;10.530;2024-03-06T05:49:45;21.13;;;11.47;;
10244;SDS011;5167;52.164;10.530;2024-03-06T05:52:10;23.17;;;11.70;;
10244;SDS011;5167;52.164;10.530;2024-03-06T05:54:36;22.97;;;12.23;;
10244;SDS011;5167;52.164;10.530;2024-03-06T05:57:02;21.33;;;12.30;;
10244;SDS011;5167;52.164;10.530;2024-03-06T05:59:28;23.40;;;12.20;;
10244;SDS011;5167;52.164;10.530;2024-03-06T06:01:53;22.50;;;12.83;;
10244;SDS011;5167;52.164;10.530;2024-03-06T06:04:19;24.33;;;12.13;;
10244;SDS011;5167;52.164;10.530;2024-03-06T06:06:45;23.00;;;11.80;;
10244;SDS011;5167;52.164;10.530;2024-03-06T06:09:10;24.40;;;12.00;;
10244;SDS011;5167;52.164;10.530;2024-03-06T06:11:41;23.37;;;13.10;;
10244;SDS011;5167;52.164;10.530;2024-03-06T06:14:07;27.63;;;12.83;;
10244;SDS011;5167;52.164;10.530;2024-03-06T06:16:36;29.30;;;13.13;;
10244;SDS011;5167;52.164;10.530;2024-03-06T06:19:02;24.83;;;13.17;;
10244;SDS011;5167;52.164;10.530;2024-03-06T06:21:29;25.30;;;12.60;;
10244;SDS011;5167;52.164;10.530;2024-03-06T06:23:55;22.27;;;13.63;;
10244;SDS011;5167;52.164;10.530;2024-03-06T06:26:21;24.13;;;12.60;;
10244;SDS011;5167;52.164;10.530;2024-03-06T06:28:46;23.03;;;12.57;;
10244;SDS011;5167;52.164;10.530;2024-03-06T06:31:12;24.80;;;13.53;;
10244;SDS011;5167;52.164;10.530;2024-03-06T06:33:37;24.50;;;12.67;;
10244;SDS011;5167;52.164;10.530;2024-03-06T06:36:03;20.33;;;11.93;;
10244;SDS011;5167;52.164;10.530;2024-03-06T06:38:28;25.60;;;12.50;;
10244;SDS011;5167;52.164;10.530;2024-03-06T06:40:55;27.53;;;13.67;;
10244;SDS011;5167;52.164;10.530;2024-03-06T06:43:20;25.60;;;12.77;;
10244;SDS011;5167;52.164;10.530;2024-03-06T06:45:46;24.10;;;12.73;;
10244;SDS011;5167;52.164;10.530;2024-03-06T06:48:11;25.90;;;12.30;;
10244;SDS011;5167;52.164;10.530;2024-03-06T06:50:37;23.47;;;12.33;;
10244;SDS011;5167;52.164;10.530;2024-03-06T06:53:03;24.17;;;12.53;;
10244;SDS011;5167;52.164;10.530;2024-03-06T06:55:29;24.20;;;13.10;;
10244;SDS011;5167;52.164;10.530;2024-03-06T06:57:55;25.40;;;13.27;;
10244;SDS011;5167;52.164;10.530;2024-03-06T07:00:20;26.87;;;13.27;;
10244;SDS011;5167;52.164;10.530;2024-03-06T07:02:48;25.50;;;14.00;;
10244;SDS011;5167;52.164;10.530;2024-03-06T07:05:13;25.13;;;12.93;;
10244;SDS011;5167;52.164;10.530;2024-03-06T07:07:39;27.03;;;13.73;;
10244;SDS011;5167;52.164;10.530;2024-03-06T07:10:05;27.50;;;14.43;;
10244;SDS011;5167;52.164;10.530;2024-03-06T07:12:31;24.93;;;13.20;;
10244;SDS011;5167;52.164;10.530;2024-03-06T07:14:57;23.57;;;13.17;;
10244;SDS011;5167;52.164;10.530;2024-03-06T07:17:24;22.57;;;13.10;;
10244;SDS011;5167;52.164;10.530;2024-03-06T07:19:49;22.63;;;12.27;;
10244;SDS011;5167;52.164;10.530;2024-03-06T07:22:17;31.00;;;13.30;;
10244;SDS011;5167;52.164;10.530;2024-03-06T07:24:42;31.03;;;17.60;;
10244;SDS011;5167;52.164;10.530;2024-03-06T07:27:08;23.60;;;13.33;;
10244;SDS011;5167;52.164;10.530;2024-03-06T07:29:34;26.60;;;14.97;;
10244;SDS011;5167;52.164;10.530;2024-03-06T07:32:00;28.73;;;13.17;;
10244;SDS011;5167;52.164;10.530;2024-03-06T07:34:26;27.33;;;14.37;;
10244;SDS011;5167;52.164;10.530;2024-03-06T07:36:52;22.77;;;12.93;;
10244;SDS011;5167;52.164;10.530;2024-03-06T07:39:20;25.50;;;13.03;;
10244;SDS011;5167;52.164;10.530;2024-03-06T07:41:46;27.27;;;13.80;;
10244;SDS011;5167;52.164;10.530;2024-03-06T07:44:12;24.27;;;13.57;;
10244;SDS011;5167;52.164;10.530;2024-03-06T07:46:37;25.17;;;13.23;;
10244;SDS011;5167;52.164;10.530;2024-03-06T07:49:03;27.40;;;13.37;;
10244;SDS011;5167;52.164;10.530;2024-03-06T07:51:29;32.70;;;13.90;;
10244;SDS011;5167;52.164;10.530;2024-03-06T07:53:58;30.47;;;13.10;;
10244;SDS011;5167;52.164;10.530;2024-03-06T07:56:24;26.47;;;13.70;;
10244;SDS011;5167;52.164;10.530;2024-03-06T07:58:50;25.77;;;14.43;;
10244;SDS011;5167;52.164;10.530;2024-03-06T08:01:16;27.03;;;13.33;;
10244;SDS011;5167;52.164;10.530;2024-03-06T08:03:42;28.30;;;14.30;;
10244;SDS011;5167;52.164;10.530;2024-03-06T08:06:08;25.63;;;13.17;;
10244;SDS011;5167;52.164;10.530;2024-03-06T08:08:34;36.00;;;15.40;;
10244;SDS011;5167;52.164;10.530;2024-03-06T08:11:07;26.67;;;14.60;;
10244;SDS011;5167;52.164;10.530;2024-03-06T08:13:35;31.20;;;14.90;;
10244;SDS011;5167;52.164;10.530;2024-03-06T08:16:01;32.20;;;14.97;;
10244;SDS011;5167;52.164;10.530;2024-03-06T08:18:26;28.93;;;14.93;;
10244;SDS011;5167;52.164;10.530;2024-03-06T08:20:52;31.30;;;14.47;;
10244;SDS011;5167;52.164;10.530;2024-03-06T08:23:18;27.67;;;14.70;;
10244;SDS011;5167;52.164;10.530;2024-03-06T08:25:43;29.00;;;13.97;;
10244;SDS011;5167;52.164;10.530;2024-03-06T08:28:09;28.03;;;15.60;;
10244;SDS011;5167;52.164;10.530;2024-03-06T08:30:34;30.90;;;16.03;;
10244;SDS011;5167;52.164;10.530;2024-03-06T08:33:00;33.53;;;15.53;;
10244;SDS011;5167;52.164;10.530;2024-03-06T08:35:26;29.07;;;15.73;;
10244;SDS011;5167;52.164;10.530;2024-03-06T08:37:51;31.17;;;15.07;;
10244;SDS011;5167;52.164;10.530;2024-03-06T08:40:17;29.03;;;15.23;;
10244;SDS011;5167;52.164;10.530;2024-03-06T08:42:43;32.87;;;16.07;;
10244;SDS011;5167;52.164;10.530;2024-03-06T08:45:10;36.77;;;16.67;;
10244;SDS011;5167;52.164;10.530;2024-03-06T08:47:35;33.07;;;17.07;;
10244;SDS011;5167;52.164;10.530;2024-03-06T08:50:01;31.40;;;15.23;;
10244;SDS011;5167;52.164;10.530;2024-03-06T08:52:27;31.97;;;15.00;;
10244;SDS011;5167;52.164;10.530;2024-03-06T08:54:53;28.87;;;15.00;;
10244;SDS011;5167;52.164;10.530;2024-03-06T08:57:19;37.70;;;15.77;;
10244;SDS011;5167;52.164;10.530;2024-03-06T08:59:46;29.77;;;16.10;;
10244;SDS011;5167;52.164;10.530;2024-03-06T09:02:12;30.90;;;15.47;;
10244;SDS011;5167;52.164;10.530;2024-03-06T09:04:42;31.57;;;16.30;;
10244;SDS011;5167;52.164;10.530;2024-03-06T09:07:08;33.70;;;16.77;;
10244;SDS011;5167;52.164;10.530;2024-03-06T09:09:34;31.20;;;16.43;;
10244;SDS011;5167;52.164;10.530;2024-03-06T09:12:01;28.67;;;15.43;;
10244;SDS011;5167;52.164;10.530;2024-03-06T09:14:29;29.33;;;14.90;;
10244;SDS011;5167;52.164;10.530;2024-03-06T09:16:55;31.93;;;16.10;;
10244;SDS011;5167;52.164;10.530;2024-03-06T09:19:20;31.00;;;16.23;;
10244;SDS011;5167;52.164;10.530;2024-03-06T09:21:46;30.47;;;16.00;;
10244;SDS011;5167;52.164;10.530;2024-03-06T09:24:11;27.90;;;15.37;;
10244;SDS011;5167;52.164;10.530;2024-03-06T09:26:37;29.97;;;16.87;;
10244;SDS011;5167;52.164;10.530;2024-03-06T09:29:02;31.53;;;16.40;;
10244;SDS011;5167;52.164;10.530;2024-03-06T09:31:31;32.20;;;16.10;;
10244;SDS011;5167;52.164;10.530;2024-03-06T09:33:56;36.90;;;16.53;;
10244;SDS011;5167;52.164;10.530;2024-03-06T09:36:23;30.67;;;17.20;;
10244;SDS011;5167;52.164;10.530;2024-03-06T09:38:49;30.40;;;16.17;;
10244;SDS011;5167;52.164;10.530;2024-03-06T09:41:14;33.70;;;15.90;;
10244;SDS011;5167;52.164;10.530;2024-03-06T09:43:40;31.17;;;16.23;;
10244;SDS011;5167;52.164;10.530;2024-03-06T09:46:06;33.07;;;15.70;;
10244;SDS011;5167;52.164;10.530;2024-03-06T09:48:32;32.03;;;15.47;;
10244;SDS011;5167;52.164;10.530;2024-03-06T09:51:02;38.67;;;15.53;;
10244;SDS011;5167;52.164;10.530;2024-03-06T09:53:28;29.63;;;15.33;;
10244;SDS011;5167;52.164;10.530;2024-03-06T09:55:54;26.70;;;14.53;;
10244;SDS011;5167;52.164;10.530;2024-03-06T09:58:22;32.27;;;15.10;;
10244;SDS011;5167;52.164;10.530;2024-03-06T10:00:48;33.83;;;16.67;;
10244;SDS011;5167;52.164;10.530;2024-03-06T10:03:15;25.67;;;15.73;;
10244;SDS011;5167;52.164;10.530;2024-03-06T10:05:40;35.00;;;17.37;;
10244;SDS011;5167;52.164;10.530;2024-03-06T10:08:08;28.63;;;14.27;;
10244;SDS011;5167;52.164;10.530;2024-03-06T10:10:34;26.83;;;15.20;;
10244;SDS011;5167;52.164;10.530;2024-03-06T10:13:00;24.83;;;13.93;;
10244;SDS011;5167;52.164;10.530;2024-03-06T10:15:26;29.17;;;14.63;;
10244;SDS011;5167;52.164;10.530;2024-03-06T10:18:09;26.00;;;13.47;;
10244;SDS011;5167;52.164;10.530;2024-03-06T10:20:44;24.93;;;13.27;;
10244;SDS011;5167;52.164;10.530;2024-03-06T10:23:10;28.20;;;14.30;;
10244;SDS011;5167;52.164;10.530;2024-03-06T10:25:35;28.00;;;14.60;;
10244;SDS011;5167;52.164;10.530;2024-03-06T10:28:19;23.70;;;12.93;;
10244;SDS011;5167;52.164;10.530;2024-03-06T10:30:46;32.07;;;13.10;;
10244;SDS011;5167;52.164;10.530;2024-03-06T10:33:12;18.80;;;12.10;;
10244;SDS011;5167;52.164;10.530;2024-03-06T10:35:42;22.20;;;12.43;;
10244;SDS011;5167;52.164;10.530;2024-03-06T10:38:09;18.33;;;11.00;;
10244;SDS011;5167;52.164;10.530;2024-03-06T10:40:39;24.10;;;11.80;;
10244;SDS011;5167;52.164;10.530;2024-03-06T10:43:07;19.07;;;10.97;;
10244;SDS011;5167;52.164;10.530;2024-03-06T10:45:40;23.67;;;12.97;;
10244;SDS011;5167;52.164;10.530;2024-03-06T10:48:13;23.50;;;12.27;;
10244;SDS011;5167;52.164;10.530;2024-03-06T10:50:40;22.87;;;12.13;;
10244;SDS011;5167;52.164;10.530;2024-03-06T10:53:10;26.50;;;11.63;;
10244;SDS011;5167;52.164;10.530;2024-03-06T10:55:36;23.03;;;12.13;;
10244;SDS011;5167;52.164;10.530;2024-03-06T10:58:06;22.60;;;12.10;;
10244;SDS011;5167;52.164;10.530;2024-03-06T11:00:43;20.83;;;12.60;;
10244;SDS011;5167;52.164;10.530;2024-03-06T11:03:13;28.23;;;14.30;;
10244;SDS011;5167;52.164;10.530;2024-03-06T11:05:40;26.90;;;12.37;;
10244;SDS011;5167;52.164;10.530;2024-03-06T11:08:07;26.93;;;12.50;;
10244;SDS011;5167;52.164;10.530;2024-03-06T11:10:34;26.10;;;13.50;;
10244;SDS011;5167;52.164;10.530;2024-03-06T11:15:45;25.37;;;11.80;;
10244;SDS011;5167;52.164;10.530;2024-03-06T11:23:26;22.63;;;12.10;;
10244;SDS011;5167;52.164;10.530;2024-03-06T11:28:19;25.73;;;12.80;;
10244;SDS011;5167;52.164;10.530;2024-03-06T11:30:47;22.87;;;12.53;;
10244;SDS011;5167;52.164;10.530;2024-03-06T11:33:23;24.43;;;14.17;;
10244;SDS011;5167;52.164;10.530;2024-03-06T11:36:20;25.57;;;13.47;;
10244;SDS011;5167;52.164;10.530;2024-03-06T11:41:27;24.17;;;12.67;;
10244;SDS011;5167;52.164;10.530;2024-03-06T11:44:12;25.63;;;13.73;;
10244;SDS011;5167;52.164;10.530;2024-03-06T11:46:41;25.87;;;14.23;;
10244;SDS011;5167;52.164;10.530;2024-03-06T11:49:14;23.17;;;12.87;;
10244;SDS011;5167;52.164;10.530;2024-03-06T11:51:42;22.17;;;13.27;;
10244;SDS011;5167;52.164;10.530;2024-03-06T11:54:09;19.80;;;12.53;;
10244;SDS011;5167;52.164;10.530;2024-03-06T11:56:35;23.53;;;12.23;;
10244;SDS011;5167;52.164;10.530;2024-03-06T11:59:03;23.40;;;12.67;;
10244;SDS011;5167;52.164;10.530;2024-03-06T12:01:28;25.67;;;12.47;;
10244;SDS011;5167;52.164;10.530;2024-03-06T12:03:55;24.70;;;12.67;;
10244;SDS011;5167;52.164;10.530;2024-03-06T12:06:20;21.37;;;11.83;;
10244;SDS011;5167;52.164;10.530;2024-03-06T12:08:47;22.57;;;12.97;;
10244;SDS011;5167;52.164;10.530;2024-03-06T12:11:13;27.40;;;13.50;;
10244;SDS011;5167;52.164;10.530;2024-03-06T12:13:38;20.27;;;12.23;;
10244;SDS011;5167;52.164;10.530;2024-03-06T12:16:06;21.60;;;12.53;;
10244;SDS011;5167;52.164;10.530;2024-03-06T12:18:32;24.00;;;12.33;;
10244;SDS011;5167;52.164;10.530;2024-03-06T12:21:00;21.20;;;11.90;;
10244;SDS011;5167;52.164;10.530;2024-03-06T12:23:27;22.73;;;12.07;;
10244;SDS011;5167;52.164;10.530;2024-03-06T12:26:06;25.70;;;12.33;;
10244;SDS011;5167;52.164;10.530;2024-03-06T12:28:35;20.90;;;11.47;;
10244;SDS011;5167;52.164;10.530;2024-03-06T12:31:04;20.60;;;11.23;;
10244;SDS011;5167;52.164;10.530;2024-03-06T12:33:30;21.43;;;11.13;;
10244;SDS011;5167;52.164;10.530;2024-03-06T12:36:00;19.30;;;11.53;;
10244;SDS011;5167;52.164;10.530;2024-03-06T12:38:35;22.90;;;11.73;;
10244;SDS011;5167;52.164;10.530;2024-03-06T12:41:02;20.07;;;11.63;;
10244;SDS011;5167;52.164;10.530;2024-03-06T12:43:27;19.80;;;11.37;;
10244;SDS011;5167;52.164;10.530;2024-03-06T12:45:56;26.17;;;10.80;;
10244;SDS011;5167;52.164;10.530;2024-03-06T12:48:22;19.70;;;11.10;;
10244;SDS011;5167;52.164;10.530;2024-03-06T12:50:49;21.53;;;11.20;;
10244;SDS011;5167;52.164;10.530;2024-03-06T12:53:19;17.30;;;10.53;;
10244;SDS011;5167;52.164;10.530;2024-03-06T12:55:45;20.87;;;10.83;;
10244;SDS011;5167;52.164;10.530;2024-03-06T12:58:11;23.30;;;12.00;;
10244;SDS011;5167;52.164;10.530;2024-03-06T13:00:40;18.23;;;10.93;;
10244;SDS011;5167;52.164;10.530;2024-03-06T13:03:06;29.93;;;11.43;;
10244;SDS011;5167;52.164;10.530;2024-03-06T13:05:32;21.47;;;10.90;;
10244;SDS011;5167;52.164;10.530;2024-03-06T13:07:57;20.93;;;12.23;;
10244;SDS011;5167;52.164;10.530;2024-03-06T13:10:24;20.23;;;11.60;;
10244;SDS011;5167;52.164;10.530;2024-03-06T13:12:50;22.70;;;12.33;;
10244;SDS011;5167;52.164;10.530;2024-03-06T13:15:15;24.07;;;12.77;;
10244;SDS011;5167;52.164;10.530;2024-03-06T13:17:41;22.77;;;13.03;;
10244;SDS011;5167;52.164;10.530;2024-03-06T13:20:07;25.58;;;13.05;;
10244;SDS011;5167;52.164;10.530;2024-03-06T13:22:39;32.43;;;14.70;;
10244;SDS011;5167;52.164;10.530;2024-03-06T13:25:05;24.00;;;13.50;;
10244;SDS011;5167;52.164;10.530;2024-03-06T13:27:31;25.98;;;13.13;;
10244;SDS011;5167;52.164;10.530;2024-03-06T13:29:57;23.20;;;13.47;;
10244;SDS011;5167;52.164;10.530;2024-03-06T13:32:23;27.65;;;13.50;;
10244;SDS011;5167;52.164;10.530;2024-03-06T13:34:48;28.55;;;14.70;;
10244;SDS011;5167;52.164;10.530;2024-03-06T13:37:14;23.83;;;14.45;;
10244;SDS011;5167;52.164;10.530;2024-03-06T13:39:40;29.15;;;14.63;;
10244;SDS011;5167;52.164;10.530;2024-03-06T13:42:06;25.33;;;14.10;;
10244;SDS011;5167;52.164;10.530;2024-03-06T13:44:33;23.70;;;13.65;;
10244;SDS011;5167;52.164;10.530;2024-03-06T13:47:00;20.55;;;13.38;;
10244;SDS011;5167;52.164;10.530;2024-03-06T13:52:01;25.92;;;14.77;;
10244;SDS011;5167;52.164;10.530;2024-03-06T13:54:27;23.70;;;14.45;;
10244;SDS011;5167;52.164;10.530;2024-03-06T13:56:52;23.77;;;14.00;;
10244;SDS011;5167;52.164;10.530;2024-03-06T13:59:20;23.73;;;13.33;;
10244;SDS011;5167;52.164;10.530;2024-03-06T14:01:46;21.15;;;12.35;;
10244;SDS011;5167;52.164;10.530;2024-03-06T14:04:14;23.02;;;12.93;;
10244;SDS011;5167;52.164;10.530;2024-03-06T14:06:39;25.55;;;13.18;;
10244;SDS011;5167;52.164;10.530;2024-03-06T14:09:05;23.00;;;12.90;;
10244;SDS011;5167;52.164;10.530;2024-03-06T14:11:32;20.90;;;11.93;;
10244;SDS011;5167;52.164;10.530;2024-03-06T14:14:00;23.40;;;12.73;;
10244;SDS011;5167;52.164;10.530;2024-03-06T14:16:25;23.80;;;13.27;;
10244;SDS011;5167;52.164;10.530;2024-03-06T14:18:52;21.83;;;11.88;;
10244;SDS011;5167;52.164;10.530;2024-03-06T14:21:18;20.60;;;12.40;;
10244;SDS011;5167;52.164;10.530;2024-03-06T14:23:44;19.67;;;11.27;;
10244;SDS011;5167;52.164;10.530;2024-03-06T14:26:09;19.40;;;11.85;;
10244;SDS011;5167;52.164;10.530;2024-03-06T14:28:35;20.67;;;10.95;;
10244;SDS011;5167;52.164;10.530;2024-03-06T14:31:00;16.47;;;10.83;;
10244;SDS011;5167;52.164;10.530;2024-03-06T14:33:26;21.00;;;12.07;;